Time;durP1;ratioP1;P1;durP2;ratioP2;P2;SDS_P1;SDS_P2;PMS_P1;PMS_P2;Temp;Humidity;BMP_temperature;BMP_pressure;BME280_temperature;BME280_humidity;BME280_pressure;Samples;Min_cycle;Max_cycle;Signal;HPM_P1;HPM_P2
2021/09/29 00:01:01;;;;;;;7.88;3.78;;;22.60;99.90;;;;;;5075327;28;20016;-72
2021/09/29 00:03:29;;;;;;;7.43;3.80;;;22.40;99.90;;;;;;5075015;28;20114;-72
2021/09/29 00:05:56;;;;;;;6.20;3.67;;;22.30;99.90;;;;;;5075266;28;20017;-73
2021/09/29 00:08:23;;;;;;;7.15;3.50;;;22.30;99.90;;;;;;5075291;28;20025;-72
2021/09/29 00:10:51;;;;;;;8.25;3.90;;;22.10;99.90;;;;;;5075153;28;20049;-72
2021/09/29 00:13:23;;;;;;;10.77;4.20;;;22.00;99.90;;;;;;5075119;28;20107;-72
2021/09/29 00:15:52;;;;;;;7.38;4.00;;;21.80;99.90;;;;;;5075012;28;20378;-73
2021/09/29 00:18:20;;;;;;;13.52;5.10;;;21.80;99.90;;;;;;5075083;28;20465;-72
2021/09/29 00:20:47;;;;;;;13.27;4.78;;;21.70;99.90;;;;;;5075325;28;20509;-73
2021/09/29 00:23:15;;;;;;;12.25;4.57;;;21.50;99.90;;;;;;5073648;28;20064;-73
2021/09/29 00:25:42;;;;;;;12.52;5.07;;;21.40;99.90;;;;;;5072331;28;20024;-73
2021/09/29 00:28:10;;;;;;;9.65;4.88;;;21.30;99.90;;;;;;5073569;28;20446;-73
2021/09/29 00:30:49;;;;;;;18.05;5.50;;;21.20;99.90;;;;;;5073540;28;20029;-70
2021/09/29 00:33:21;;;;;;;13.55;5.07;;;21.10;99.90;;;;;;5074608;28;20028;-71
2021/09/29 00:35:48;;;;;;;11.73;4.50;;;21.20;99.90;;;;;;5073446;28;20024;-70
2021/09/29 00:38:16;;;;;;;12.55;5.78;;;21.10;99.90;;;;;;5074730;28;20435;-71
2021/09/29 00:40:43;;;;;;;12.35;4.90;;;21.10;99.90;;;;;;5073444;28;20040;-70
2021/09/29 00:43:10;;;;;;;10.48;4.55;;;21.20;99.90;;;;;;5074729;28;20392;-71
2021/09/29 00:45:38;;;;;;;12.00;4.80;;;21.20;99.90;;;;;;5073269;28;20063;-70
2021/09/29 00:48:05;;;;;;;10.88;4.32;;;21.10;99.90;;;;;;5074622;28;20028;-71
2021/09/29 00:50:34;;;;;;;8.25;4.10;;;21.00;99.90;;;;;;5074506;28;20027;-71
2021/09/29 00:53:03;;;;;;;8.88;3.78;;;20.80;99.90;;;;;;5073193;28;20455;-71
2021/09/29 00:55:31;;;;;;;7.22;4.07;;;20.60;99.90;;;;;;5074379;28;20016;-70
2021/09/29 00:57:58;;;;;;;11.70;4.68;;;20.50;99.90;;;;;;5074299;28;20020;-71
2021/09/29 01:00:26;;;;;;;10.43;4.38;;;20.30;99.90;;;;;;5074262;28;20021;-70
2021/09/29 01:02:53;;;;;;;13.90;4.60;;;20.30;99.90;;;;;;5073114;28;20028;-71
2021/09/29 01:05:20;;;;;;;10.23;4.75;;;;;;;;;;5072743;28;20024;-71
2021/09/29 01:08:08;;;;;;;11.20;4.43;;;20.40;99.90;;;;;;5074102;28;20029;-71
2021/09/29 01:10:58;;;;;;;8.15;3.97;;;20.40;99.90;;;;;;5074065;28;20028;-71
2021/09/29 01:13:27;;;;;;;12.57;4.43;;;20.40;99.90;;;;;;5073671;28;20039;-71
2021/09/29 01:16:02;;;;;;;8.70;4.50;;;20.30;99.90;;;;;;5072430;28;20405;-71
2021/09/29 01:18:33;;;;;;;7.55;4.10;;;20.30;99.90;;;;;;5074116;28;20021;-71
2021/09/29 01:21:07;;;;;;;8.23;4.07;;;20.20;99.90;;;;;;5072626;28;20025;-71
2021/09/29 01:23:50;;;;;;;10.15;4.10;;;20.30;99.90;;;;;;5072665;28;20024;-71
2021/09/29 01:26:26;;;;;;;7.82;3.80;;;20.50;99.90;;;;;;5074017;28;20036;-71
2021/09/29 01:28:57;;;;;;;7.97;3.90;;;20.60;99.90;;;;;;5073808;28;20489;-71
2021/09/29 01:31:25;;;;;;;10.15;3.90;;;20.60;99.90;;;;;;5072280;28;20503;-72
2021/09/29 01:33:54;;;;;;;8.13;4.25;;;20.60;99.90;;;;;;5073584;28;20362;-72
2021/09/29 01:36:23;;;;;;;12.45;4.53;;;20.50;99.90;;;;;;5073255;28;20048;-71
2021/09/29 01:38:56;;;;;;;6.82;4.03;;;20.60;99.90;;;;;;5073559;28;20028;-72
2021/09/29 01:41:32;;;;;;;8.25;4.10;;;20.70;99.90;;;;;;5072438;28;20389;-72
2021/09/29 01:44:00;;;;;;;6.93;3.65;;;20.70;99.90;;;;;;5073784;28;20103;-73
2021/09/29 01:46:29;;;;;;;9.40;4.03;;;20.90;99.90;;;;;;5072023;28;20028;-72
2021/09/29 01:49:19;;;;;;;8.02;3.88;;;20.90;99.90;;;;;;5073227;28;20025;-72
2021/09/29 01:51:50;;;;;;;13.50;4.10;;;21.10;99.90;;;;;;5072191;28;20028;-72
2021/09/29 01:54:20;;;;;;;6.47;3.92;;;21.20;99.90;;;;;;5073143;28;20273;-72
2021/09/29 01:56:48;;;;;;;7.25;3.55;;;21.40;99.90;;;;;;5071880;28;20024;-72
2021/09/29 01:59:16;;;;;;;5.50;3.50;;;21.60;99.90;;;;;;5073309;28;20017;-72
2021/09/29 02:01:44;;;;;;;10.02;3.65;;;21.70;99.90;;;;;;5071869;28;20017;-71
2021/09/29 02:04:12;;;;;;;6.07;3.83;;;21.80;99.90;;;;;;5072937;28;20077;-71
2021/09/29 02:06:51;;;;;;;8.23;3.70;;;21.50;99.90;;;;;;5073271;28;20024;-72
2021/09/29 02:09:19;;;;;;;4.75;3.50;;;21.50;99.90;;;;;;5072970;28;20021;-71
2021/09/29 02:11:48;;;;;;;6.75;4.00;;;21.40;99.90;;;;;;5073049;28;20024;-72
2021/09/29 02:14:20;;;;;;;5.90;3.85;;;21.30;99.90;;;;;;5071746;28;20036;-72
2021/09/29 02:16:52;;;;;;;6.88;3.65;;;21.20;99.90;;;;;;5072957;28;20066;-72
2021/09/29 02:19:20;;;;;;;7.43;3.65;;;21.10;99.90;;;;;;5073050;28;20021;-73
2021/09/29 02:21:48;;;;;;;8.52;4.32;;;20.80;99.90;;;;;;5071684;28;20017;-73
2021/09/29 02:24:15;;;;;;;9.43;3.95;;;20.70;99.90;;;;;;5072826;28;20020;-73
2021/09/29 02:26:43;;;;;;;7.15;4.07;;;20.70;99.90;;;;;;5072761;28;20167;-73
2021/09/29 02:29:13;;;;;;;7.15;3.42;;;20.40;99.90;;;;;;5072843;28;20091;-73
2021/09/29 02:31:41;;;;;;;9.27;3.60;;;20.50;99.90;;;;;;5071521;28;20485;-73
2021/09/29 02:34:08;;;;;;;6.82;3.60;;;20.30;99.90;;;;;;5072624;28;20121;-72
2021/09/29 02:36:36;;;;;;;6.70;3.47;;;20.10;99.90;;;;;;5072615;28;20031;-73
2021/09/29 02:39:05;;;;;;;8.30;3.90;;;20.10;99.90;;;;;;5072948;28;20024;-73
2021/09/29 02:41:33;;;;;;;9.05;3.95;;;20.10;99.90;;;;;;5072624;28;20039;-73
2021/09/29 02:44:00;;;;;;;6.70;3.85;;;20.00;99.90;;;;;;5072650;28;20055;-73
2021/09/29 02:46:28;;;;;;;7.60;4.65;;;20.00;99.90;;;;;;5072524;28;20025;-73
2021/09/29 02:48:55;;;;;;;5.10;4.53;;;19.80;99.90;;;;;;5071989;28;20424;-73
2021/09/29 02:51:23;;;;;;;6.22;4.30;;;19.90;99.90;;;;;;5072588;28;20114;-73
2021/09/29 02:53:50;;;;;;;8.43;4.47;;;19.80;99.90;;;;;;5071314;28;20063;-73
2021/09/29 02:56:18;;;;;;;8.63;4.60;;;19.70;99.90;;;;;;5072547;28;20023;-72
2021/09/29 02:58:45;;;;;;;8.07;4.63;;;19.70;99.90;;;;;;5071334;28;20047;-73
2021/09/29 03:01:13;;;;;;;7.63;4.63;;;19.50;99.90;;;;;;5072271;28;20550;-73
2021/09/29 03:03:40;;;;;;;6.03;3.97;;;19.60;99.90;;;;;;5071034;28;20030;-73
2021/09/29 03:06:07;;;;;;;5.68;4.03;;;19.40;99.90;;;;;;5070964;28;20027;-73
2021/09/29 03:08:35;;;;;;;7.50;4.90;;;19.40;99.90;;;;;;5071040;28;20037;-73
2021/09/29 03:11:02;;;;;;;8.02;4.75;;;19.40;99.90;;;;;;5072480;28;20031;-73
2021/09/29 03:13:30;;;;;;;9.70;5.47;;;19.50;99.90;;;;;;5072222;28;20051;-73
2021/09/29 03:15:57;;;;;;;6.97;5.25;;;19.60;99.90;;;;;;5072146;28;20045;-73
2021/09/29 03:18:24;;;;;;;7.70;5.32;;;19.50;99.90;;;;;;5072271;28;20024;-74
2021/09/29 03:20:52;;;;;;;10.32;5.20;;;19.40;99.90;;;;;;5072266;28;20017;-73
2021/09/29 03:23:22;;;;;;;8.50;6.03;;;19.20;99.90;;;;;;5072276;28;20028;-74
2021/09/29 03:25:49;;;;;;;9.93;5.50;;;19.30;99.90;;;;;;5071113;28;20116;-74
2021/09/29 03:28:17;;;;;;;6.28;5.68;;;19.10;99.90;;;;;;5070911;28;20150;-73
2021/09/29 03:30:44;;;;;;;7.88;6.28;;;19.10;99.90;;;;;;5070721;28;20043;-73
2021/09/29 03:33:11;;;;;;;8.02;6.88;;;18.90;99.90;;;;;;5072002;28;20035;-73
2021/09/29 03:35:39;;;;;;;13.18;7.28;;;18.80;99.90;;;;;;5072055;28;20021;-73
2021/09/29 03:38:06;;;;;;;13.02;9.13;;;18.70;99.90;;;;;;5070731;28;20025;-73
2021/09/29 03:40:33;;;;;;;11.80;9.45;;;18.50;99.90;;;;;;5070900;28;20384;-73
2021/09/29 03:43:01;;;;;;;11.10;9.95;;;18.50;99.90;;;;;;5072024;28;20111;-74
2021/09/29 03:45:28;;;;;;;13.43;10.23;;;18.40;99.90;;;;;;5071992;28;20111;-73
2021/09/29 03:47:55;;;;;;;11.35;10.48;;;18.40;99.90;;;;;;5070719;28;20366;-75
2021/09/29 03:50:23;;;;;;;12.40;11.50;;;18.30;99.90;;;;;;5072179;28;20025;-74
2021/09/29 03:52:51;;;;;;;11.85;10.70;;;18.30;99.90;;;;;;5071985;28;20111;-73
2021/09/29 03:55:18;;;;;;;12.07;10.88;;;18.20;99.90;;;;;;5070818;28;20492;-72
2021/09/29 03:57:46;;;;;;;12.65;11.43;;;18.20;99.90;;;;;;5071950;28;20028;-72
2021/09/29 04:00:14;;;;;;;12.50;11.60;;;18.20;99.90;;;;;;5073725;28;20542;-74
2021/09/29 04:02:43;;;;;;;14.88;12.23;;;18.20;99.90;;;;;;5075586;28;20016;-74
2021/09/29 04:05:11;;;;;;;13.30;12.13;;;18.10;99.90;;;;;;5075262;28;20012;-72
2021/09/29 04:07:41;;;;;;;13.82;12.35;;;18.10;99.90;;;;;;5073898;28;20081;-72
2021/09/29 04:10:09;;;;;;;13.65;12.32;;;18.10;99.90;;;;;;5075359;28;20024;-71
2021/09/29 04:12:39;;;;;;;14.68;12.35;;;18.10;99.90;;;;;;5073971;28;20098;-72
2021/09/29 04:15:08;;;;;;;13.25;11.95;;;18.00;99.90;;;;;;5073817;28;20044;-73
2021/09/29 04:17:36;;;;;;;13.70;12.30;;;18.00;99.90;;;;;;5073895;28;20032;-72
2021/09/29 04:20:06;;;;;;;14.88;13.30;;;18.00;99.90;;;;;;5075094;28;20028;-73
2021/09/29 04:22:34;;;;;;;15.13;13.60;;;18.10;99.90;;;;;;5075161;28;20532;-72
2021/09/29 04:25:02;;;;;;;14.88;13.52;;;18.00;99.90;;;;;;5075078;28;20504;-73
2021/09/29 04:27:29;;;;;;;15.05;13.63;;;18.10;99.90;;;;;;5075000;28;20473;-72
2021/09/29 04:29:57;;;;;;;14.73;13.30;;;18.10;99.90;;;;;;5073880;28;20058;-73
2021/09/29 04:32:24;;;;;;;14.20;12.70;;;18.10;99.90;;;;;;5073743;28;20032;-72
2021/09/29 04:34:51;;;;;;;15.85;14.27;;;18.00;99.90;;;;;;5074815;28;20028;-73
2021/09/29 04:37:19;;;;;;;15.57;14.07;;;18.00;99.90;;;;;;5074774;28;20070;-73
2021/09/29 04:39:46;;;;;;;16.27;14.75;;;18.10;99.90;;;;;;5074821;28;20020;-72
2021/09/29 04:42:14;;;;;;;15.00;13.77;;;18.10;99.90;;;;;;5073493;28;20052;-72
2021/09/29 04:44:41;;;;;;;16.50;14.60;;;18.00;99.90;;;;;;5074736;28;20025;-73
2021/09/29 04:47:08;;;;;;;15.75;14.05;;;18.00;99.90;;;;;;5073406;28;20115;-72
2021/09/29 04:49:36;;;;;;;15.15;13.75;;;18.00;99.90;;;;;;5074673;28;20024;-72
2021/09/29 04:52:03;;;;;;;16.02;14.30;;;17.80;99.90;;;;;;5073322;28;20435;-71
2021/09/29 04:54:31;;;;;;;16.05;14.60;;;17.70;99.90;;;;;;5074494;28;20107;-72
2021/09/29 04:56:58;;;;;;;16.63;14.23;;;17.80;99.90;;;;;;5073171;28;20024;-72
2021/09/29 04:59:25;;;;;;;19.40;13.82;;;17.80;99.90;;;;;;5074593;28;20021;-72
2021/09/29 05:01:54;;;;;;;17.63;14.45;;;17.80;99.90;;;;;;5074381;28;20017;-72
2021/09/29 05:04:24;;;;;;;16.73;13.85;;;17.80;99.90;;;;;;5073039;28;20533;-73
2021/09/29 05:06:53;;;;;;;14.82;13.50;;;17.80;99.90;;;;;;5074651;28;20389;-72
2021/09/29 05:09:21;;;;;;;16.17;13.50;;;17.80;99.90;;;;;;5074168;28;20116;-72
2021/09/29 05:12:03;;;;;;;17.17;13.10;;;17.80;99.90;;;;;;5072331;28;20032;-72
2021/09/29 05:14:31;;;;;;;14.77;13.27;;;17.80;99.90;;;;;;5074293;28;20028;-73
2021/09/29 05:16:58;;;;;;;19.27;14.82;;;17.80;99.90;;;;;;5074006;28;20102;-73
2021/09/29 05:19:25;;;;;;;16.25;13.80;;;17.80;99.90;;;;;;5072864;28;20025;-72
2021/09/29 05:21:53;;;;;;;17.33;14.13;;;17.80;99.90;;;;;;5074328;28;20017;-73
2021/09/29 05:24:20;;;;;;;14.75;13.23;;;17.70;99.90;;;;;;5072721;28;20025;-74
2021/09/29 05:26:50;;;;;;;15.48;13.80;;;17.80;99.90;;;;;;5073827;28;20500;-73
2021/09/29 05:29:19;;;;;;;15.70;14.10;;;17.70;99.90;;;;;;5073894;28;20061;-72
2021/09/29 05:31:46;;;;;;;16.77;15.10;;;17.80;99.90;;;;;;5072612;28;20399;-72
2021/09/29 05:34:14;;;;;;;20.23;14.90;;;17.80;99.90;;;;;;5072365;28;20025;-72
2021/09/29 05:36:45;;;;;;;15.77;14.35;;;17.70;99.90;;;;;;5073724;28;20024;-72
2021/09/29 05:39:13;;;;;;;16.50;14.65;;;17.70;99.90;;;;;;5073641;28;20024;-72
2021/09/29 05:41:40;;;;;;;16.65;15.07;;;17.70;99.90;;;;;;5072316;28;20060;-72
2021/09/29 05:44:08;;;;;;;17.00;15.02;;;17.70;99.90;;;;;;5072166;28;20028;-72
2021/09/29 05:46:35;;;;;;;15.25;13.95;;;17.70;99.90;;;;;;5072128;28;20032;-72
2021/09/29 05:49:03;;;;;;;16.17;14.75;;;17.80;99.90;;;;;;5072125;28;20115;-73
2021/09/29 05:51:31;;;;;;;15.90;14.25;;;17.70;99.90;;;;;;5073426;28;20021;-72
2021/09/29 05:53:58;;;;;;;15.27;13.80;;;17.80;99.90;;;;;;5073288;28;20044;-72
2021/09/29 05:56:26;;;;;;;15.50;14.02;;;17.80;99.90;;;;;;5073268;28;20031;-72
2021/09/29 05:58:53;;;;;;;15.82;13.45;;;18.00;99.90;;;;;;5073293;28;20017;-73
2021/09/29 06:01:20;;;;;;;20.92;14.23;;;17.80;99.90;;;;;;5073068;28;20044;-72
2021/09/29 06:03:48;;;;;;;16.10;14.43;;;17.80;99.90;;;;;;5073021;28;20453;-73
2021/09/29 06:06:15;;;;;;;17.98;14.18;;;17.80;99.90;;;;;;5073053;28;20021;-72
2021/09/29 06:08:42;;;;;;;15.75;14.25;;;17.70;99.90;;;;;;5073130;28;20131;-72
2021/09/29 06:11:10;;;;;;;16.95;14.25;;;17.70;99.90;;;;;;5071577;28;20424;-72
2021/09/29 06:13:37;;;;;;;21.33;14.15;;;17.70;99.90;;;;;;5071519;28;20025;-72
2021/09/29 06:16:09;;;;;;;17.30;13.90;;;17.70;99.90;;;;;;5072721;28;20041;-73
2021/09/29 06:18:37;;;;;;;16.55;13.85;;;17.70;99.90;;;;;;5071540;28;20025;-73
2021/09/29 06:21:07;;;;;;;15.20;13.48;;;17.70;99.90;;;;;;5072754;28;20112;-72
2021/09/29 06:23:35;;;;;;;16.60;14.57;;;17.70;99.90;;;;;;5071979;28;20078;-72
2021/09/29 06:26:03;;;;;;;16.55;14.05;;;17.60;99.90;;;;;;5071346;28;20115;-72
2021/09/29 06:28:34;;;;;;;16.33;14.40;;;17.60;99.90;;;;;;5071576;28;20028;-71
2021/09/29 06:31:02;;;;;;;15.90;14.30;;;17.50;99.90;;;;;;5071648;28;20029;-71
2021/09/29 06:33:29;;;;;;;16.00;14.40;;;17.50;99.90;;;;;;5072965;28;20032;-73
2021/09/29 06:35:56;;;;;;;15.32;13.02;;;17.50;99.90;;;;;;5072704;28;20036;-72
2021/09/29 06:38:24;;;;;;;14.50;13.02;;;17.50;99.90;;;;;;5072796;28;20074;-73
2021/09/29 06:40:51;;;;;;;14.65;13.18;;;17.40;99.90;;;;;;5072718;28;20028;-73
2021/09/29 06:43:19;;;;;;;15.40;13.80;;;17.40;99.90;;;;;;5071492;28;20480;-74
2021/09/29 06:45:46;;;;;;;19.73;12.95;;;17.40;99.90;;;;;;5072763;28;20020;-73
2021/09/29 06:48:16;;;;;;;14.85;12.75;;;17.40;99.90;;;;;;5071245;28;20032;-72
2021/09/29 06:50:49;;;;;;;14.57;13.15;;;17.50;99.90;;;;;;5072465;28;20032;-72
2021/09/29 06:53:22;;;;;;;14.38;13.07;;;17.50;99.90;;;;;;5072457;28;20602;-73
2021/09/29 06:55:50;;;;;;;14.43;13.10;;;17.50;99.90;;;;;;5072596;28;20020;-73
2021/09/29 06:58:20;;;;;;;14.30;12.90;;;17.50;99.90;;;;;;5071149;28;20025;-73
2021/09/29 07:00:48;;;;;;;15.98;12.98;;;17.40;99.90;;;;;;5072322;28;20059;-73
2021/09/29 07:03:15;;;;;;;16.88;12.90;;;17.50;99.90;;;;;;5072476;28;20024;-72
2021/09/29 07:05:43;;;;;;;14.27;12.90;;;17.40;99.90;;;;;;5070822;28;20071;-72
2021/09/29 07:08:10;;;;;;;14.25;12.70;;;17.40;99.90;;;;;;5072423;28;20495;-71
2021/09/29 07:10:38;;;;;;;15.50;13.20;;;17.50;99.90;;;;;;5070967;28;20036;-72
2021/09/29 07:13:05;;;;;;;15.68;13.90;;;17.50;99.90;;;;;;5072309;28;20035;-72
2021/09/29 07:15:34;;;;;;;14.93;13.40;;;17.50;99.90;;;;;;5072000;28;20166;-74
2021/09/29 07:18:03;;;;;;;15.73;13.45;;;17.50;99.90;;;;;;5072179;28;20016;-74
2021/09/29 07:20:31;;;;;;;15.35;13.77;;;17.40;99.90;;;;;;5070992;28;20495;-72
2021/09/29 07:22:59;;;;;;;16.42;14.75;;;17.40;99.90;;;;;;5054507;28;20033;-72
2021/09/29 07:25:30;;;;;;;14.55;13.13;;;17.30;99.90;;;;;;5072148;28;20357;-71
2021/09/29 07:27:58;;;;;;;15.88;14.25;;;17.40;99.90;;;;;;5071014;28;20021;-71
2021/09/29 07:30:27;;;;;;;14.68;13.18;;;17.30;99.90;;;;;;5071829;28;20017;-71
2021/09/29 07:33:04;;;;;;;14.32;13.00;;;17.30;99.90;;;;;;5072175;28;20422;-71
2021/09/29 07:35:32;;;;;;;17.92;14.20;;;17.30;99.90;;;;;;5073911;28;20414;-72
2021/09/29 07:38:01;;;;;;;15.63;14.02;;;17.20;99.90;;;;;;5075780;28;20027;-70
2021/09/29 07:40:29;;;;;;;15.45;13.90;;;17.20;99.90;;;;;;5074665;28;20106;-72
2021/09/29 07:42:57;;;;;;;17.70;14.38;;;17.10;99.90;;;;;;5074925;28;20511;-73
2021/09/29 07:45:25;;;;;;;16.02;14.25;;;17.10;99.90;;;;;;5074989;28;20338;-73
2021/09/29 07:47:53;;;;;;;15.25;13.70;;;17.10;99.90;;;;;;5074564;28;20027;-72
2021/09/29 07:50:21;;;;;;;15.88;14.35;;;17.10;99.90;;;;;;5075741;28;20452;-69
2021/09/29 07:52:49;;;;;;;14.93;13.43;;;17.10;99.90;;;;;;5075888;28;20055;-73
2021/09/29 07:55:19;;;;;;;16.08;14.45;;;17.10;99.90;;;;;;5074320;28;20028;-73
2021/09/29 07:57:47;;;;;;;16.88;14.93;;;17.00;99.90;;;;;;5075733;28;20107;-70
2021/09/29 08:00:16;;;;;;;17.95;15.43;;;17.00;99.90;;;;;;5075518;28;20017;-71
2021/09/29 08:02:44;;;;;;;15.77;14.27;;;17.00;99.90;;;;;;5075693;28;20432;-70
2021/09/29 08:05:14;;;;;;;16.52;14.70;;;17.00;99.90;;;;;;5075485;28;20526;-70
2021/09/29 08:07:42;;;;;;;16.63;15.23;;;17.00;99.90;;;;;;5075434;28;20478;-70
2021/09/29 08:10:10;;;;;;;18.77;14.75;;;16.90;99.90;;;;;;5075288;28;20029;-70
2021/09/29 08:12:38;;;;;;;18.00;15.40;;;17.00;99.90;;;;;;5073861;28;20032;-71
2021/09/29 08:15:12;;;;;;;16.10;14.32;;;16.90;99.90;;;;;;5073738;28;20515;-71
2021/09/29 08:17:41;;;;;;;18.48;15.13;;;16.90;99.90;;;;;;5074060;28;20034;-71
2021/09/29 08:20:11;;;;;;;16.50;14.85;;;16.80;99.90;;;;;;5075386;28;20100;-70
2021/09/29 08:22:40;;;;;;;17.58;15.63;;;16.80;99.90;;;;;;5075415;28;20090;-71
2021/09/29 08:25:23;;;;;;;17.75;15.93;;;16.80;99.90;;;;;;5075215;28;20028;-71
2021/09/29 08:40:24;;;;;;;17.40;15.57;;;16.60;99.90;;;;;;5074668;28;20043;-69
2021/09/29 08:43:04;;;;;;;17.35;15.57;;;16.70;99.90;;;;;;5073523;28;20029;-70
2021/09/29 08:45:58;;;;;;;17.30;15.50;;;16.70;99.90;;;;;;5074776;28;20024;-71
2021/09/29 08:48:33;;;;;;;18.55;16.60;;;16.60;99.90;;;;;;5073037;28;20021;-71
2021/09/29 08:53:58;;;;;;;19.20;15.95;;;16.60;99.90;;;;;;5074665;28;20037;-68
2021/09/29 09:18:16;;;;;;;17.48;15.77;;;16.80;99.90;;;;;;5074261;28;20033;-68
2021/09/29 09:20:53;;;;;;;17.48;15.70;;;16.70;99.90;;;;;;5072713;28;20031;-69
2021/09/29 09:23:32;;;;;;;17.35;15.48;;;16.70;99.90;;;;;;5073851;28;20477;-69
2021/09/29 09:25:59;;;;;;;17.70;15.90;;;16.80;99.90;;;;;;5073904;28;20370;-70
2021/09/29 09:28:28;;;;;;;17.73;16.00;;;16.80;99.90;;;;;;5072412;28;20150;-70
2021/09/29 09:31:11;;;;;;;16.80;15.27;;;16.80;99.90;;;;;;5072823;28;20500;-70
2021/09/29 09:34:00;;;;;;;17.30;15.88;;;16.80;99.90;;;;;;5073678;28;20036;-68
2021/09/29 09:36:37;;;;;;;17.50;15.77;;;16.80;99.90;;;;;;5072563;28;20433;-69
2021/09/29 09:39:11;;;;;;;20.27;18.13;;;16.80;99.90;;;;;;5072297;28;20496;-68
2021/09/29 09:41:47;;;;;;;17.92;16.23;;;16.80;99.90;;;;;;5073719;28;20028;-69
2021/09/29 09:44:22;;;;;;;17.67;15.93;;;16.80;99.90;;;;;;5072219;28;20035;-69
2021/09/29 09:47:11;;;;;;;17.35;15.77;;;16.80;99.90;;;;;;5073710;28;20039;-69
2021/09/29 09:49:55;;;;;;;17.33;15.63;;;16.80;99.90;;;;;;5073467;28;20028;-70
2021/09/29 09:52:29;;;;;;;17.00;15.48;;;16.80;99.90;;;;;;5073343;28;20118;-69
2021/09/29 09:55:08;;;;;;;17.98;16.23;;;16.80;99.90;;;;;;5072088;28;20055;-69
2021/09/29 09:57:39;;;;;;;17.08;15.60;;;16.70;99.90;;;;;;5071928;28;20049;-68
2021/09/29 10:00:08;;;;;;;17.08;15.45;;;16.70;99.90;;;;;;5073464;28;20017;-69
2021/09/29 10:02:44;;;;;;;15.68;14.38;;;16.70;99.90;;;;;;5073453;28;20020;-69
2021/09/29 10:05:14;;;;;;;16.40;14.90;;;16.70;99.90;;;;;;5073175;28;20446;-69
2021/09/29 10:07:41;;;;;;;16.33;14.82;;;16.70;99.90;;;;;;5073264;28;20103;-69
2021/09/29 10:10:20;;;;;;;17.33;15.85;;;16.70;99.90;;;;;;5072975;28;20036;-69
2021/09/29 10:26:51;;;;;;;19.00;17.35;;;16.70;99.90;;;;;;5053137;28;20127;-71
2021/09/29 10:29:20;;;;;;;19.10;17.25;;;16.80;99.90;;;;;;5071557;28;20469;-71
2021/09/29 10:32:05;;;;;;;17.77;16.48;;;16.70;99.90;;;;;;5072833;28;20066;-70
2021/09/29 10:34:42;;;;;;;17.50;16.02;;;16.70;99.90;;;;;;5071258;28;20397;-70
2021/09/29 10:37:24;;;;;;;18.00;16.20;;;16.70;99.90;;;;;;5072728;28;20016;-71
2021/09/29 10:42:56;;;;;;;18.58;16.98;;;16.70;99.90;;;;;;5072678;28;20047;-71
2021/09/29 10:51:20;;;;;;;17.73;16.23;;;16.70;99.90;;;;;;5072576;28;20027;-70
2021/09/29 11:03:30;;;;;;;16.95;15.50;;;16.60;99.90;;;;;;5072960;28;20111;-69
2021/09/29 11:28:07;;;;;;;14.73;13.85;;;16.50;99.90;;;;;;5076900;28;20075;-70
2021/09/29 11:30:58;;;;;;;15.00;13.85;;;16.50;99.90;;;;;;5074915;28;20028;-69
2021/09/29 11:36:10;;;;;;;15.05;14.05;;;16.50;99.90;;;;;;5076174;28;20392;-70
2021/09/29 12:12:30;;;;;;;15.18;14.10;;;16.40;99.90;;;;;;5075386;28;20359;-68
2021/09/29 12:15:03;;;;;;;14.45;13.32;;;16.40;99.90;;;;;;5073890;28;20024;-68
2021/09/29 12:17:35;;;;;;;13.65;12.73;;;16.50;99.90;;;;;;5075144;28;20107;-69
2021/09/29 12:20:12;;;;;;;14.63;13.73;;;16.50;99.90;;;;;;5075288;28;20029;-68
2021/09/29 12:22:48;;;;;;;15.32;14.32;;;16.50;99.90;;;;;;5073771;28;20025;-68
2021/09/29 12:25:36;;;;;;;15.20;14.20;;;16.40;99.90;;;;;;5075118;28;20028;-69
2021/09/29 12:36:38;;;;;;;14.25;13.30;;;16.50;99.90;;;;;;5075167;28;20108;-69
2021/09/29 12:39:25;;;;;;;14.75;13.90;;;16.50;99.90;;;;;;5074972;28;20496;-68
2021/09/29 12:41:56;;;;;;;15.50;14.43;;;16.50;99.90;;;;;;5073523;28;20054;-68
2021/09/29 12:44:23;;;;;;;14.73;13.80;;;16.50;99.90;;;;;;5073471;28;20025;-68
2021/09/29 12:47:14;;;;;;;13.48;12.73;;;16.50;99.90;;;;;;5074799;28;20024;-68
2021/09/29 12:49:42;;;;;;;14.35;13.52;;;16.50;99.90;;;;;;5073386;28;20028;-69
2021/09/29 12:52:13;;;;;;;13.15;12.25;;;16.50;99.90;;;;;;5074703;28;20031;-68
2021/09/29 12:54:47;;;;;;;13.45;12.65;;;16.50;99.90;;;;;;5074574;28;20028;-68
2021/09/29 12:57:14;;;;;;;13.02;12.02;;;16.50;99.90;;;;;;5073318;28;20111;-68
2021/09/29 12:59:41;;;;;;;13.43;12.68;;;16.50;99.90;;;;;;5073261;28;20024;-68
2021/09/29 13:02:08;;;;;;;13.40;12.60;;;16.50;99.90;;;;;;5074558;28;20424;-69
2021/09/29 13:04:36;;;;;;;13.32;12.52;;;16.50;99.90;;;;;;5074283;28;20103;-68
2021/09/29 13:07:03;;;;;;;14.00;13.20;;;16.50;99.90;;;;;;5074519;28;20032;-69
2021/09/29 13:09:33;;;;;;;13.10;12.30;;;16.50;99.90;;;;;;5072950;28;20025;-70
2021/09/29 13:12:01;;;;;;;13.77;12.77;;;16.50;99.90;;;;;;5074299;28;20059;-69
2021/09/29 13:14:29;;;;;;;13.68;12.85;;;16.50;99.90;;;;;;5074120;28;20040;-69
2021/09/29 13:16:56;;;;;;;13.52;12.73;;;16.50;99.90;;;;;;5073917;28;20067;-69
2021/09/29 13:19:48;;;;;;;13.27;12.38;;;16.50;99.90;;;;;;5072807;28;20020;-69
2021/09/29 13:22:20;;;;;;;13.45;12.70;;;16.50;99.90;;;;;;5073944;28;20112;-69
2021/09/29 13:25:02;;;;;;;13.70;13.00;;;16.50;99.90;;;;;;5074084;28;20032;-69
2021/09/29 13:38:10;;;;;;;13.18;12.57;;;16.40;99.90;;;;;;5073768;28;20092;-69
2021/09/29 13:40:40;;;;;;;13.63;12.82;;;16.40;99.90;;;;;;5073656;28;20017;-69
2021/09/29 13:43:09;;;;;;;13.07;12.27;;;16.50;99.90;;;;;;5072391;28;20512;-69
2021/09/29 13:45:37;;;;;;;13.63;12.80;;;16.40;99.90;;;;;;5073585;28;20392;-69
2021/09/29 13:48:05;;;;;;;13.30;12.40;;;16.40;99.90;;;;;;5073502;28;20043;-69
2021/09/29 13:50:33;;;;;;;13.25;12.50;;;16.40;99.90;;;;;;5073561;28;20119;-69
2021/09/29 13:53:01;;;;;;;13.50;12.50;;;16.30;99.90;;;;;;5073376;28;20043;-68
2021/09/29 13:55:30;;;;;;;14.02;13.07;;;16.30;99.90;;;;;;5073446;28;20056;-68
2021/09/29 13:58:07;;;;;;;13.88;13.05;;;16.30;99.90;;;;;;5073408;28;20044;-69
2021/09/29 14:30:48;;;;;;;14.10;13.13;;;15.70;99.90;;;;;;5073161;28;20559;-68
2021/09/29 14:33:25;;;;;;;12.90;12.20;;;15.70;99.90;;;;;;5072862;28;20020;-68
2021/09/29 14:35:52;;;;;;;12.45;11.85;;;15.70;99.90;;;;;;5071553;28;20021;-69
2021/09/29 14:38:19;;;;;;;12.38;11.77;;;15.60;99.90;;;;;;5073039;28;20032;-68
2021/09/29 14:40:49;;;;;;;12.60;12.07;;;15.60;99.90;;;;;;5071529;28;20027;-69
2021/09/29 14:43:18;;;;;;;12.60;12.00;;;15.60;99.90;;;;;;5072832;28;20024;-69
2021/09/29 14:45:46;;;;;;;13.43;12.73;;;15.60;99.90;;;;;;5071881;28;20077;-69
2021/09/29 14:48:13;;;;;;;12.35;11.85;;;15.60;99.90;;;;;;5072666;28;20081;-70
2021/09/29 14:50:43;;;;;;;12.50;12.00;;;15.50;99.90;;;;;;5071613;28;20035;-68
2021/09/29 14:53:10;;;;;;;12.63;11.93;;;15.50;99.90;;;;;;5071189;28;20039;-69
2021/09/29 14:55:38;;;;;;;13.80;13.00;;;15.50;99.90;;;;;;5072653;28;20150;-69
2021/09/29 14:58:06;;;;;;;13.38;12.65;;;15.40;99.90;;;;;;5071233;28;20025;-69
2021/09/29 15:00:33;;;;;;;12.90;12.23;;;15.40;99.90;;;;;;5072565;28;20025;-69
2021/09/29 15:03:01;;;;;;;12.63;12.02;;;15.50;99.90;;;;;;5072469;28;20027;-69
2021/09/29 15:05:30;;;;;;;12.68;12.18;;;15.40;99.90;;;;;;5072376;28;20029;-68
2021/09/29 15:07:58;;;;;;;12.68;12.05;;;15.40;99.90;;;;;;5071174;28;20052;-68
2021/09/29 15:10:26;;;;;;;12.48;11.90;;;15.40;99.90;;;;;;5071141;28;20091;-68
2021/09/29 15:12:53;;;;;;;12.63;12.13;;;15.40;99.90;;;;;;5071046;28;20078;-67
2021/09/29 15:15:24;;;;;;;12.90;12.30;;;15.40;99.90;;;;;;5072116;28;20063;-68
2021/09/29 15:23:22;;;;;;;12.95;12.25;;;15.40;99.90;;;;;;5072391;28;20033;-70
2021/09/29 15:48:02;;;;;;;14.40;13.50;;;15.20;99.90;;;;;;5072360;28;20036;-68
2021/09/29 15:50:36;;;;;;;15.00;14.02;;;15.20;99.90;;;;;;5070811;28;20366;-69
2021/09/29 15:53:32;;;;;;;15.05;14.10;;;15.30;99.90;;;;;;5072104;28;20062;-68
2021/09/29 15:58:47;;;;;;;15.32;14.30;;;15.20;99.90;;;;;;5075740;28;20021;-69
2021/09/29 16:01:19;;;;;;;14.80;13.90;;;15.30;99.90;;;;;;5076000;28;20453;-68
2021/09/29 16:23:10;;;;;;;;;;;;;;;;;;;;;
2021/09/29 16:31:27;;;;;;;14.95;14.05;;;15.60;99.90;;;;;;5075172;28;20020;-68
2021/09/29 16:33:48;;;;;;;15.50;14.48;;;15.60;99.90;;;;;;5069168;28;20032;-68
2021/09/29 16:36:17;;;;;;;14.95;13.90;;;15.60;99.90;;;;;;5074989;28;20378;-68
2021/09/29 16:38:46;;;;;;;14.65;13.85;;;15.60;99.90;;;;;;5074902;28;20028;-69
2021/09/29 16:41:15;;;;;;;15.13;14.25;;;15.60;99.90;;;;;;5074913;28;20104;-69